Time;durP1;ratioP1;P1;durP2;ratioP2;P2;SDS_P1;SDS_P2;PMS_P1;PMS_P2;Temp;Humidity;BMP_temperature;BMP_pressure;BME280_temperature;BME280_humidity;BME280_pressure;Samples;Min_cycle;Max_cycle;Signal;HPM_P1;HPM_P2
2024/02/27 00:01:13;;;;;;;4.20;1.05;;;;;;;9.13;93.96;99963.41;5053371;28;20064;-65
2024/02/27 00:03:39;;;;;;;5.10;0.82;;;;;;;9.01;95.16;99961.97;5049528;28;20123;-66
2024/02/27 00:06:04;;;;;;;5.00;1.13;;;;;;;8.95;96.53;99966.00;5048598;28;20066;-66
2024/02/27 00:08:30;;;;;;;7.15;0.95;;;;;;;8.91;97.01;99962.06;5042494;28;20490;-66
2024/02/27 00:10:55;;;;;;;3.50;0.50;;;;;;;8.83;96.47;99967.16;5045263;28;20048;-67
2024/02/27 00:13:21;;;;;;;2.30;0.40;;;;;;;8.95;96.09;99960.81;5046513;28;20043;-66
2024/02/27 00:15:46;;;;;;;2.78;0.50;;;;;;;8.94;94.58;99962.59;5044675;28;20170;-66
2024/02/27 00:18:16;;;;;;;1.33;0.50;;;;;;;9.01;91.92;99955.00;5043471;28;20048;-66
2024/02/27 00:20:41;;;;;;;2.17;0.40;;;;;;;9.20;92.62;99954.88;5042894;28;20048;-66
2024/02/27 00:23:07;;;;;;;1.85;0.10;;;;;;;9.25;93.79;99954.44;5042419;28;20064;-66
2024/02/27 00:25:33;;;;;;;5.45;0.20;;;;;;;9.12;95.37;99959.19;5050249;28;20032;-66
2024/02/27 00:27:58;;;;;;;1.48;0.25;;;;;;;9.02;96.45;99966.22;5045563;28;20040;-66
2024/02/27 00:30:24;;;;;;;1.30;0.20;;;;;;;8.93;97.95;99960.16;5066191;28;20040;-67
2024/02/27 00:32:49;;;;;;;1.75;0.25;;;;;;;8.89;96.57;99966.59;5056101;28;20039;-66
2024/02/27 00:35:14;;;;;;;2.65;0.20;;;;;;;9.05;93.79;99961.53;5042189;28;20043;-66
2024/02/27 00:37:40;;;;;;;1.77;0.10;;;;;;;9.25;86.72;99955.25;5045121;28;20028;-67
2024/02/27 00:40:06;;;;;;;0.52;0.10;;;;;;;9.26;88.28;99963.88;5052359;28;20090;-67
2024/02/27 00:42:31;;;;;;;0.40;0.20;;;;;;;9.29;85.62;99966.19;5057065;28;20033;-66
2024/02/27 00:44:57;;;;;;;0.35;0.10;;;;;;;9.37;85.66;99950.66;5045417;28;20039;-66
2024/02/27 00:47:22;;;;;;;0.73;0.10;;;;;;;9.42;84.61;99947.63;5043511;28;20032;-67
2024/02/27 00:49:48;;;;;;;0.20;0.05;;;;;;;9.45;86.10;99948.09;5050163;28;20048;-66
2024/02/27 00:52:13;;;;;;;0.30;0.10;;;;;;;9.43;85.23;99944.88;5043222;28;20127;-67
2024/02/27 00:54:39;;;;;;;0.70;0.10;;;;;;;9.40;84.53;99952.16;5044385;28;20045;-66
2024/02/27 00:57:04;;;;;;;1.65;0.10;;;;;;;9.43;83.88;99941.44;5048915;28;20049;-66
2024/02/27 00:59:30;;;;;;;0.60;0.00;;;;;;;9.55;82.95;99938.44;5045031;28;20028;-66
2024/02/27 01:01:55;;;;;;;0.17;0.10;;;;;;;9.60;80.62;99933.59;5057193;28;20167;-66
2024/02/27 01:04:21;;;;;;;0.93;0.00;;;;;;;9.55;84.97;99940.22;5048683;28;20051;-66
2024/02/27 01:06:46;;;;;;;1.55;0.10;;;;;;;9.73;82.33;99925.41;5044935;28;20020;-66
2024/02/27 01:09:11;;;;;;;1.20;0.15;;;;;;;9.92;81.00;99932.22;5057920;28;20036;-66
2024/02/27 01:11:37;;;;;;;0.30;0.10;;;;;;;10.06;80.34;99925.59;5048607;28;20115;-66
2024/02/27 01:14:02;;;;;;;0.20;0.00;;;;;;;9.98;80.67;99926.38;5043204;28;20036;-66
2024/02/27 01:16:28;;;;;;;4.40;0.10;;;;;;;9.98;85.31;99916.78;5043815;28;20037;-66
2024/02/27 01:18:53;;;;;;;1.75;0.10;;;;;;;9.80;87.79;99923.84;5046955;28;20041;-67
2024/02/27 01:21:18;;;;;;;1.75;0.05;;;;;;;9.60;90.12;99922.38;5044041;28;20036;-67
2024/02/27 01:23:44;;;;;;;0.50;0.10;;;;;;;9.40;92.17;99919.16;5044155;28;20034;-66
2024/02/27 01:26:09;;;;;;;0.65;0.00;;;;;;;9.25;93.34;99912.84;5049874;28;20029;-66
2024/02/27 01:28:35;;;;;;;0.25;0.03;;;;;;;9.12;93.88;99915.00;5048917;28;20024;-66
2024/02/27 01:31:00;;;;;;;0.75;0.10;;;;;;;8.97;94.57;99915.53;5068028;28;20024;-66
2024/02/27 01:33:26;;;;;;;1.10;0.10;;;;;;;8.89;96.33;99915.44;5061780;28;20036;-66
2024/02/27 01:35:51;;;;;;;2.13;0.20;;;;;;;8.83;97.58;99910.84;5041460;28;20064;-66
2024/02/27 01:38:17;;;;;;;1.65;0.10;;;;;;;8.79;98.67;99919.88;5043084;28;21019;-66
2024/02/27 01:40:42;;;;;;;2.92;0.20;;;;;;;8.76;99.07;99920.19;5043262;28;20123;-66
2024/02/27 01:43:25;;;;;;;0.93;0.20;;;;;;;8.77;92.74;99932.19;5046882;28;20058;-66
2024/02/27 01:45:57;;;;;;;2.78;0.65;;;;;;;8.88;91.78;99932.00;5045000;28;20135;-66
2024/02/27 01:48:23;;;;;;;4.72;0.80;;;;;;;8.82;91.60;99922.19;5045484;28;20346;-66
2024/02/27 01:50:49;;;;;;;2.97;1.10;;;;;;;8.74;93.36;99931.66;5045160;28;20036;-66
2024/02/27 01:53:15;;;;;;;4.68;1.00;;;;;;;8.68;92.54;99935.66;5042489;28;20040;-66
2024/02/27 01:55:43;;;;;;;4.32;1.48;;;;;;;8.58;92.48;99933.13;5044993;28;20032;-66
2024/02/27 01:58:10;;;;;;;6.15;1.63;;;;;;;8.52;93.93;99925.06;5047509;28;20174;-66
2024/02/27 02:00:35;;;;;;;3.20;1.52;;;;;;;8.49;94.93;99926.22;5050075;28;20082;-66
2024/02/27 02:03:02;;;;;;;5.72;1.77;;;;;;;8.50;95.87;99912.28;5046877;28;20033;-67
2024/02/27 02:05:29;;;;;;;4.25;1.52;;;;;;;8.45;95.26;99913.66;5045345;28;20052;-66
2024/02/27 02:07:54;;;;;;;3.38;1.48;;;;;;;8.50;97.98;99916.66;5047175;28;20454;-66
2024/02/27 02:10:19;;;;;;;7.15;1.40;;;;;;;8.47;99.29;99922.13;5042771;28;20040;-66
2024/02/27 02:12:45;;;;;;;3.25;1.33;;;;;;;8.43;100.00;99918.19;5051356;28;20039;-66
2024/02/27 02:15:10;;;;;;;8.02;1.73;;;;;;;8.40;100.00;99921.88;5046943;28;20040;-66
2024/02/27 02:17:36;;;;;;;3.22;1.45;;;;;;;8.36;100.00;99924.91;5045826;28;20043;-66
2024/02/27 02:20:05;;;;;;;3.22;1.55;;;;;;;8.31;100.00;99920.94;5043853;28;20040;-66
2024/02/27 02:22:31;;;;;;;5.05;1.67;;;;;;;8.26;100.00;99915.34;5042311;28;20130;-66
2024/02/27 02:24:58;;;;;;;4.38;1.65;;;;;;;8.23;100.00;99914.81;5043650;28;20025;-67
2024/02/27 02:27:25;;;;;;;5.03;1.58;;;;;;;8.23;100.00;99918.22;5044959;28;20029;-66
2024/02/27 02:29:51;;;;;;;3.75;1.40;;;;;;;8.21;100.00;99917.53;5063470;28;20028;-66
2024/02/27 02:32:17;;;;;;;6.07;1.55;;;;;;;8.20;100.00;99910.72;5053934;28;20542;-66
2024/02/27 02:34:42;;;;;;;2.60;1.40;;;;;;;8.20;100.00;99915.91;5046153;28;20036;-66
2024/02/27 02:37:08;;;;;;;4.00;1.35;;;;;;;8.21;100.00;99921.91;5045913;28;20048;-67
2024/02/27 02:39:33;;;;;;;4.18;1.02;;;;;;;8.19;100.00;99922.06;5049111;28;20039;-66
2024/02/27 02:41:59;;;;;;;2.25;1.05;;;;;;;8.19;100.00;99923.84;5045464;28;20574;-66
2024/02/27 02:44:24;;;;;;;3.60;1.60;;;;;;;8.14;100.00;99926.03;5051922;28;20035;-66
2024/02/27 02:46:49;;;;;;;7.10;1.55;;;;;;;8.14;100.00;99926.03;5046159;28;20028;-66
2024/02/27 02:49:15;;;;;;;5.40;1.20;;;;;;;8.12;100.00;99920.16;5045223;28;20060;-66
2024/02/27 02:51:40;;;;;;;2.47;0.90;;;;;;;8.13;100.00;99920.03;5049219;28;20035;-66
2024/02/27 02:54:06;;;;;;;5.65;1.20;;;;;;;8.13;100.00;99914.84;5044751;28;20110;-66
2024/02/27 02:56:31;;;;;;;3.53;1.15;;;;;;;8.12;100.00;99923.59;5063656;28;20118;-66
2024/02/27 02:58:57;;;;;;;4.82;1.05;;;;;;;8.13;100.00;99917.44;5050751;28;20043;-66
2024/02/27 03:01:22;;;;;;;2.00;0.50;;;;;;;8.18;100.00;99915.22;5057065;28;20044;-66
2024/02/27 03:03:47;;;;;;;5.32;0.93;;;;;;;8.26;100.00;99923.13;5050262;28;20032;-66
2024/02/27 03:06:13;;;;;;;3.20;1.17;;;;;;;8.27;100.00;99929.13;5046885;28;20037;-66
2024/02/27 03:08:38;;;;;;;2.67;0.85;;;;;;;8.25;100.00;99941.44;5049473;28;20842;-67
2024/02/27 03:11:04;;;;;;;4.65;0.98;;;;;;;8.25;100.00;99941.44;5044179;28;20080;-66
2024/02/27 03:13:30;;;;;;;1.38;0.60;;;;;;;8.25;100.00;99947.44;5059524;28;20045;-67
2024/02/27 03:15:56;;;;;;;3.55;0.80;;;;;;;8.22;100.00;99958.09;5070798;28;20036;-66
2024/02/27 03:18:22;;;;;;;1.13;0.40;;;;;;;8.20;100.00;99962.63;5071109;28;20021;-66
2024/02/27 03:20:47;;;;;;;3.78;0.95;;;;;;;8.18;100.00;99968.91;5073344;28;20500;-66
2024/02/27 03:23:13;;;;;;;3.22;0.47;;;;;;;8.18;100.00;99967.13;5069971;28;20037;-66
2024/02/27 03:25:38;;;;;;;3.42;0.60;;;;;;;8.31;100.00;99959.03;5075884;28;20037;-66
2024/02/27 03:28:03;;;;;;;1.60;0.60;;;;;;;8.30;100.00;99963.41;5071770;28;20033;-66
2024/02/27 03:30:29;;;;;;;1.83;0.70;;;;;;;8.24;100.00;99976.94;5054009;28;20029;-66
2024/02/27 03:32:54;;;;;;;2.25;0.50;;;;;;;8.21;100.00;99979.81;5070358;28;20108;-66
2024/02/27 03:35:21;;;;;;;2.22;1.08;;;;;;;8.19;100.00;99976.56;5071190;28;20389;-67
2024/02/27 03:37:47;;;;;;;0.95;0.40;;;;;;;8.28;100.00;99975.72;5071911;28;20153;-67
2024/02/27 03:40:12;;;;;;;1.92;0.57;;;;;;;8.30;100.00;99979.00;5069669;28;20040;-66
2024/02/27 03:42:38;;;;;;;2.00;0.50;;;;;;;8.34;100.00;99963.16;5071482;28;20039;-66
2024/02/27 03:45:04;;;;;;;2.47;0.50;;;;;;;8.39;100.00;99958.38;5070963;28;20051;-66
2024/02/27 03:47:30;;;;;;;12.90;3.60;;;;;;;8.55;100.00;99943.78;5072843;28;20055;-66
2024/02/27 03:49:55;;;;;;;8.48;1.52;;;;;;;9.06;93.02;99954.56;5067130;28;20155;-67
2024/02/27 03:52:21;;;;;;;1.60;0.30;;;;;;;9.52;87.75;99945.72;5070571;28;20062;-66
2024/02/27 03:54:46;;;;;;;1.20;0.17;;;;;;;9.56;87.56;99952.25;5070668;28;20047;-67
2024/02/27 03:57:12;;;;;;;6.18;0.10;;;;;;;9.61;84.06;99956.03;5070497;28;20044;-66
2024/02/27 03:59:37;;;;;;;0.40;0.13;;;;;;;9.61;90.54;99950.03;5069437;28;20485;-67
2024/02/27 04:02:03;;;;;;;1.38;0.30;;;;;;;9.43;92.97;99964.84;5070297;28;20099;-66
2024/02/27 04:04:30;;;;;;;0.90;0.28;;;;;;;9.22;96.88;99965.94;5075127;28;20035;-66
2024/02/27 04:06:56;;;;;;;0.75;0.20;;;;;;;9.06;99.57;99950.19;5071303;28;20032;-66
2024/02/27 04:09:21;;;;;;;1.70;0.25;;;;;;;8.93;100.00;99934.97;5070359;28;20049;-66
2024/02/27 04:11:46;;;;;;;4.63;0.25;;;;;;;8.86;100.00;99939.13;5072606;28;20036;-66
2024/02/27 04:14:12;;;;;;;2.22;0.60;;;;;;;8.79;100.00;99951.06;5069621;28;20484;-66
2024/02/27 04:16:39;;;;;;;2.80;0.20;;;;;;;8.74;100.00;99953.28;5071194;28;20032;-66
2024/02/27 04:19:05;;;;;;;1.10;0.30;;;;;;;8.68;100.00;99961.63;5072019;28;20091;-66
2024/02/27 04:21:31;;;;;;;0.68;0.20;;;;;;;8.61;100.00;99965.75;5071272;28;20033;-67
2024/02/27 04:23:57;;;;;;;1.00;0.25;;;;;;;8.57;100.00;99961.81;5068422;28;20102;-67
2024/02/27 04:26:22;;;;;;;1.65;0.20;;;;;;;8.55;100.00;99974.13;5069770;28;20040;-66
2024/02/27 04:28:48;;;;;;;0.90;0.20;;;;;;;8.51;100.00;99972.78;5071196;28;20020;-66
2024/02/27 04:31:13;;;;;;;6.65;0.22;;;;;;;8.48;100.00;99970.50;5068558;28;20085;-66
2024/02/27 04:33:40;;;;;;;1.50;0.30;;;;;;;8.48;100.00;99960.94;5071506;28;20028;-66
2024/02/27 04:36:09;;;;;;;1.67;0.20;;;;;;;8.52;100.00;99990.00;5070053;28;20040;-66
2024/02/27 04:38:35;;;;;;;2.20;0.47;;;;;;;8.54;100.00;99981.09;5069650;28;20540;-67
2024/02/27 04:41:00;;;;;;;2.75;0.30;;;;;;;8.57;100.00;99982.59;5069848;28;20508;-66
2024/02/27 04:43:26;;;;;;;0.70;0.20;;;;;;;8.69;100.00;99978.84;5069524;28;20024;-66
2024/02/27 04:45:51;;;;;;;1.15;0.20;;;;;;;8.69;100.00;99978.84;5071461;28;20037;-66
2024/02/27 04:48:16;;;;;;;2.40;0.20;;;;;;;8.88;93.08;99983.97;5066259;28;20050;-66
2024/02/27 04:50:42;;;;;;;0.43;0.10;;;;;;;8.98;93.88;99984.69;5070029;28;20052;-67
2024/02/27 04:53:07;;;;;;;2.72;0.20;;;;;;;9.11;90.04;99981.75;5069139;28;20032;-66
2024/02/27 04:55:33;;;;;;;1.30;0.20;;;;;;;9.31;88.58;99975.47;5071631;28;20028;-66
2024/02/27 04:57:58;;;;;;;0.47;0.10;;;;;;;9.41;86.12;99979.78;5070978;28;20052;-66
2024/02/27 05:00:24;;;;;;;0.60;0.10;;;;;;;9.51;90.17;99985.69;5069684;28;20036;-67
2024/02/27 05:02:49;;;;;;;0.45;0.10;;;;;;;9.44;94.29;99995.09;5070081;28;20033;-66
2024/02/27 05:05:15;;;;;;;0.70;0.10;;;;;;;9.13;98.18;99994.59;5069555;28;20036;-66
2024/02/27 05:07:40;;;;;;;1.20;0.20;;;;;;;8.85;100.00;99999.84;5069859;28;20024;-67
2024/02/27 05:10:07;;;;;;;1.73;0.20;;;;;;;8.66;100.00;99999.91;5069237;28;20035;-66
2024/02/27 05:12:32;;;;;;;0.82;0.30;;;;;;;8.50;100.00;100002.31;5070074;28;20081;-66
2024/02/27 05:14:58;;;;;;;1.48;0.25;;;;;;;8.36;100.00;99995.00;5069858;28;20032;-66
2024/02/27 05:17:23;;;;;;;1.75;0.20;;;;;;;8.35;100.00;100001.13;5068681;28;20024;-66
2024/02/27 05:19:48;;;;;;;2.58;0.20;;;;;;;8.58;100.00;99986.81;5066421;28;20925;-66
2024/02/27 05:22:14;;;;;;;3.10;0.47;;;;;;;8.81;97.48;99998.50;5069366;28;20035;-66
2024/02/27 05:24:39;;;;;;;0.90;0.20;;;;;;;8.90;95.84;100002.81;5069968;28;20028;-66
2024/02/27 05:27:05;;;;;;;1.98;0.20;;;;;;;8.87;95.86;100003.09;5069331;28;20114;-66
2024/02/27 05:29:32;;;;;;;1.05;0.15;;;;;;;8.89;94.46;100003.78;5070056;28;20115;-66
2024/02/27 05:31:59;;;;;;;0.85;0.10;;;;;;;8.91;92.92;100008.84;5069390;28;20052;-67
2024/02/27 05:34:24;;;;;;;1.75;0.10;;;;;;;8.80;94.73;99996.84;5067388;28;20028;-66
2024/02/27 05:36:50;;;;;;;2.08;0.10;;;;;;;8.57;100.00;100000.78;5069836;28;20378;-67
2024/02/27 05:39:15;;;;;;;1.80;0.13;;;;;;;8.44;100.00;100002.88;5068102;28;20037;-67
2024/02/27 05:41:41;;;;;;;1.58;0.20;;;;;;;8.27;100.00;100000.03;5069217;28;20111;-66
2024/02/27 05:44:06;;;;;;;1.75;0.28;;;;;;;8.08;100.00;100000.06;5067917;28;20037;-67
2024/02/27 05:46:32;;;;;;;3.55;0.22;;;;;;;7.93;100.00;100002.28;5069235;28;20040;-67
2024/02/27 05:48:58;;;;;;;1.55;0.17;;;;;;;7.89;100.00;100002.72;5068974;28;20036;-67
2024/02/27 05:51:23;;;;;;;1.98;0.20;;;;;;;7.98;100.00;99994.09;5071894;28;20038;-67
2024/02/27 05:53:49;;;;;;;2.78;0.30;;;;;;;7.97;100.00;99992.47;5068830;28;20115;-67
2024/02/27 05:56:16;;;;;;;3.85;0.10;;;;;;;8.05;100.00;99994.34;5068283;28;20497;-67
2024/02/27 05:58:42;;;;;;;0.75;0.20;;;;;;;8.30;100.00;99998.94;5069655;28;20393;-67
2024/02/27 06:01:07;;;;;;;1.83;0.20;;;;;;;8.35;100.00;99996.75;5068582;28;20120;-67
2024/02/27 06:03:34;;;;;;;2.17;0.10;;;;;;;8.46;100.00;100001.78;5070849;28;20032;-66
2024/02/27 06:06:00;;;;;;;0.95;0.20;;;;;;;8.55;100.00;99994.91;5073059;28;20035;-67
2024/02/27 06:08:25;;;;;;;0.95;0.10;;;;;;;8.67;100.00;100006.75;5073250;28;20025;-67
2024/02/27 06:10:51;;;;;;;0.85;0.20;;;;;;;8.55;100.00;100013.06;5072170;28;20556;-67
2024/02/27 06:13:16;;;;;;;0.90;0.15;;;;;;;8.49;100.00;100011.91;5072968;28;20097;-66
2024/02/27 06:15:44;;;;;;;1.65;0.20;;;;;;;8.48;100.00;100018.03;5073272;28;20028;-66
2024/02/27 06:18:18;;;;;;;2.30;0.30;;;;;;;8.47;100.00;100031.16;5072656;28;20158;-66
2024/02/27 06:23:28;;;;;;;1.45;0.22;;;;;;;8.47;100.00;100025.97;5071376;28;20169;-66
2024/02/27 06:25:54;;;;;;;1.60;0.10;;;;;;;8.52;100.00;100021.16;5071942;28;20047;-66
2024/02/27 06:28:21;;;;;;;0.77;0.20;;;;;;;8.51;100.00;100027.28;5071940;28;20040;-66
2024/02/27 06:30:47;;;;;;;1.80;0.20;;;;;;;8.49;100.00;100029.25;5070966;28;20094;-68
2024/02/27 06:33:12;;;;;;;1.23;0.20;;;;;;;8.42;100.00;100033.38;5072380;28;20028;-66
2024/02/27 06:35:38;;;;;;;2.88;0.90;;;;;;;8.35;100.00;100033.09;5071974;28;20446;-67
2024/02/27 06:38:04;;;;;;;5.75;0.85;;;;;;;8.43;100.00;100029.81;5072217;28;20028;-66
2024/02/27 06:40:30;;;;;;;4.72;0.70;;;;;;;8.44;100.00;100034.03;5072114;28;20028;-67
2024/02/27 06:42:55;;;;;;;2.05;0.65;;;;;;;8.41;100.00;100040.34;5072186;28;20101;-67
2024/02/27 06:45:21;;;;;;;2.65;0.82;;;;;;;8.40;100.00;100045.66;5067639;28;20029;-66
2024/02/27 06:47:47;;;;;;;3.47;0.40;;;;;;;8.36;100.00;100041.72;5071603;28;20024;-66
2024/02/27 06:50:12;;;;;;;9.88;1.23;;;;;;;8.39;100.00;100037.06;5071972;28;20047;-66
2024/02/27 06:52:39;;;;;;;6.43;0.90;;;;;;;8.41;100.00;100034.31;5072353;28;20032;-66
2024/02/27 06:55:05;;;;;;;2.85;0.60;;;;;;;8.41;100.00;100031.72;5070707;28;20095;-66
2024/02/27 06:57:32;;;;;;;5.32;0.57;;;;;;;8.37;100.00;100031.19;5074905;28;20493;-66
2024/02/27 06:59:57;;;;;;;3.40;0.35;;;;;;;8.45;100.00;100030.50;5071353;28;20083;-67
2024/02/27 07:02:23;;;;;;;3.72;0.50;;;;;;;8.53;100.00;100031.38;5071323;28;20029;-65
2024/02/27 07:04:48;;;;;;;1.30;0.43;;;;;;;8.72;100.00;100038.31;5072390;28;20036;-66
2024/02/27 07:07:14;;;;;;;1.05;0.30;;;;;;;8.87;100.00;100023.06;5071673;28;20131;-65
2024/02/27 07:09:39;;;;;;;14.93;3.38;;;;;;;8.89;100.00;100034.13;5071871;28;20490;-68
2024/02/27 07:12:05;;;;;;;6.50;3.10;;;;;;;8.82;100.00;100036.50;5071343;28;20042;-67
2024/02/27 07:14:33;;;;;;;4.32;1.95;;;;;;;8.76;100.00;100041.44;5070619;28;20377;-67
2024/02/27 07:16:59;;;;;;;3.75;1.20;;;;;;;8.68;100.00;100051.72;5069060;28;20180;-67
2024/02/27 07:19:25;;;;;;;2.70;0.70;;;;;;;8.73;100.00;100058.13;5067125;28;20029;-67
2024/02/27 07:21:50;;;;;;;6.85;1.55;;;;;;;8.75;100.00;100060.56;5070981;28;20078;-67
2024/02/27 07:24:16;;;;;;;5.63;1.83;;;;;;;8.71;100.00;100060.03;5071430;28;20505;-67
2024/02/27 07:26:42;;;;;;;5.07;2.25;;;;;;;8.72;100.00;100058.25;5071970;28;20102;-67
2024/02/27 07:29:08;;;;;;;7.53;2.03;;;;;;;8.71;100.00;100057.44;5070968;28;20029;-67
2024/02/27 07:31:34;;;;;;;4.03;0.63;;;;;;;8.68;100.00;100056.91;5070947;28;20036;-67
2024/02/27 07:33:59;;;;;;;2.60;0.40;;;;;;;8.72;100.00;100058.25;5068837;28;20501;-67
2024/02/27 07:36:26;;;;;;;0.65;0.20;;;;;;;8.79;100.00;100057.56;5070680;28;20060;-67
2024/02/27 07:38:51;;;;;;;2.40;0.40;;;;;;;8.86;100.00;100063.81;5070987;28;20033;-67
2024/02/27 07:41:18;;;;;;;2.70;0.22;;;;;;;8.88;100.00;100069.69;5069097;28;20126;-67
2024/02/27 07:43:43;;;;;;;1.63;0.50;;;;;;;8.87;100.00;100072.44;5070231;28;20087;-67
2024/02/27 07:46:13;;;;;;;4.15;1.13;;;;;;;8.86;100.00;100074.22;5071005;28;20497;-67
2024/02/27 07:48:39;;;;;;;5.70;1.90;;;;;;;8.85;100.00;100075.16;5069927;28;20500;-66
2024/02/27 07:51:04;;;;;;;2.00;0.40;;;;;;;8.82;100.00;100083.25;5070445;28;20112;-67
2024/02/27 07:53:30;;;;;;;1.42;0.30;;;;;;;8.88;100.00;100087.88;5070499;28;20036;-67
2024/02/27 07:55:55;;;;;;;0.60;0.40;;;;;;;8.87;100.00;100083.63;5070232;28;20401;-67
2024/02/27 07:58:21;;;;;;;1.10;0.40;;;;;;;8.82;100.00;100085.84;5069255;28;20413;-67
2024/02/27 08:00:46;;;;;;;0.20;0.10;;;;;;;8.78;100.00;100086.28;5073865;28;20032;-67
2024/02/27 08:03:12;;;;;;;4.13;0.10;;;;;;;8.82;100.00;100087.63;5069817;28;20032;-67
2024/02/27 08:05:37;;;;;;;1.23;0.10;;;;;;;8.84;100.00;100088.31;5072470;28;20032;-67
2024/02/27 08:08:03;;;;;;;0.90;0.17;;;;;;;8.86;100.00;100097.59;5069934;28;20386;-68
2024/02/27 08:10:29;;;;;;;0.88;0.20;;;;;;;8.86;100.00;100094.19;5071401;28;20595;-67
2024/02/27 08:12:54;;;;;;;0.80;0.20;;;;;;;8.82;100.00;100109.22;5071225;28;20554;-67
2024/02/27 08:15:20;;;;;;;1.73;0.20;;;;;;;8.76;100.00;100111.56;5071025;28;20040;-67
2024/02/27 08:17:46;;;;;;;2.58;0.20;;;;;;;8.78;100.00;100110.47;5070325;28;20032;-67
2024/02/27 08:20:12;;;;;;;3.13;0.30;;;;;;;8.78;100.00;100122.63;5070271;28;20033;-67
2024/02/27 08:22:37;;;;;;;4.80;0.20;;;;;;;8.74;100.00;100111.72;5071903;28;20037;-67
2024/02/27 08:25:04;;;;;;;0.70;0.10;;;;;;;8.77;100.00;100114.03;5070574;28;20089;-67
2024/02/27 08:27:29;;;;;;;0.30;0.10;;;;;;;8.80;100.00;100113.75;5066154;28;20139;-67
2024/02/27 08:29:55;;;;;;;2.83;0.10;;;;;;;8.81;100.00;100117.97;5069213;28;20123;-67
2024/02/27 08:32:22;;;;;;;0.20;0.00;;;;;;;8.84;100.00;100119.47;5063742;28;20047;-67
2024/02/27 08:34:47;;;;;;;0.70;0.10;;;;;;;8.85;100.00;100118.53;5066119;28;20036;-67
2024/02/27 08:37:13;;;;;;;3.10;0.10;;;;;;;8.85;100.00;100114.13;5067956;28;20124;-67
2024/02/27 08:39:38;;;;;;;2.60;0.10;;;;;;;8.88;100.00;100116.44;5068657;28;20024;-66
2024/02/27 08:42:04;;;;;;;2.47;0.30;;;;;;;8.87;100.00;100117.41;5068089;28;20036;-67
2024/02/27 08:44:30;;;;;;;0.52;0.10;;;;;;;8.89;100.00;100112.91;5071073;28;20086;-66
2024/02/27 08:46:55;;;;;;;1.10;0.20;;;;;;;8.85;100.00;100114.13;5070005;28;20105;-67
2024/02/27 08:49:20;;;;;;;3.15;0.40;;;;;;;8.87;100.00;100121.78;5069768;28;20112;-67
2024/02/27 08:51:46;;;;;;;2.17;0.20;;;;;;;8.85;100.00;100115.91;5069366;28;20039;-67
2024/02/27 08:54:12;;;;;;;1.08;0.25;;;;;;;8.83;100.00;100115.25;5066348;28;20141;-68
2024/02/27 08:56:39;;;;;;;1.33;0.20;;;;;;;8.89;100.00;100110.31;5068099;28;20044;-68
2024/02/27 08:59:06;;;;;;;0.82;0.10;;;;;;;8.95;100.00;100114.94;5067825;28;20036;-67
2024/02/27 09:01:31;;;;;;;0.65;0.20;;;;;;;8.97;100.00;100117.38;5069419;28;20078;-67
2024/02/27 09:03:57;;;;;;;1.70;0.28;;;;;;;8.95;100.00;100125.31;5070186;28;20540;-66
2024/02/27 09:06:22;;;;;;;0.50;0.10;;;;;;;8.98;100.00;100125.00;5070041;28;20581;-66
2024/02/27 09:08:48;;;;;;;1.45;0.20;;;;;;;8.99;100.00;100131.84;5070487;28;20437;-68
2024/02/27 09:11:13;;;;;;;1.45;0.20;;;;;;;9.05;100.00;100137.44;5069181;28;20066;-68
2024/02/27 09:13:38;;;;;;;0.47;0.10;;;;;;;9.07;100.00;100138.13;5070972;28;20032;-68
2024/02/27 09:16:05;;;;;;;2.90;0.25;;;;;;;9.16;100.00;100145.06;5069570;28;20111;-68
2024/02/27 09:18:31;;;;;;;1.00;0.25;;;;;;;9.14;100.00;100152.19;5067027;28;20029;-68
2024/02/27 09:20:57;;;;;;;1.80;0.20;;;;;;;9.18;100.00;100151.75;5067869;28;20046;-68
2024/02/27 09:23:22;;;;;;;0.65;0.10;;;;;;;9.17;100.00;100149.28;5068439;28;20546;-67
2024/02/27 09:25:47;;;;;;;6.32;0.22;;;;;;;9.22;100.00;100152.28;5072906;28;20496;-68
2024/02/27 09:28:13;;;;;;;0.20;0.00;;;;;;;9.26;100.00;100153.63;5068552;28;20037;-67
2024/02/27 09:30:39;;;;;;;1.15;0.10;;;;;;;9.31;100.00;100167.03;5073222;28;20035;-67
2024/02/27 09:33:04;;;;;;;4.72;0.40;;;;;;;9.36;100.00;100164.81;5068074;28;20090;-68
2024/02/27 09:35:30;;;;;;;2.28;0.20;;;;;;;9.39;100.00;100159.34;5067892;28;20033;-68
2024/02/27 09:37:55;;;;;;;1.17;0.10;;;;;;;9.42;100.00;100161.66;5068990;28;20485;-68
2024/02/27 09:40:21;;;;;;;1.63;0.10;;;;;;;9.42;100.00;100159.06;5068917;28;20051;-68
2024/02/27 09:42:51;;;;;;;2.67;0.10;;;;;;;9.49;100.00;100167.88;5065802;28;20111;-67
2024/02/27 09:45:19;;;;;;;0.98;0.17;;;;;;;9.46;100.00;100170.78;5068535;28;20040;-68
2024/02/27 09:47:48;;;;;;;2.85;0.20;;;;;;;9.42;100.00;100169.44;5069651;28;20401;-68
2024/02/27 09:50:20;;;;;;;1.27;0.20;;;;;;;9.36;100.00;100170.03;5069382;28;20503;-66
2024/02/27 09:52:50;;;;;;;2.60;0.30;;;;;;;9.36;100.00;100169.19;5065614;28;20032;-67
2024/02/27 09:55:18;;;;;;;1.65;0.30;;;;;;;9.45;100.00;100171.72;5068862;28;20195;-66
2024/02/27 09:57:46;;;;;;;2.47;0.40;;;;;;;9.50;100.00;100173.91;5069656;28;20409;-67
2024/02/27 10:00:16;;;;;;;0.95;0.17;;;;;;;9.42;100.00;100173.84;5069151;28;20051;-67
2024/02/27 10:02:45;;;;;;;1.65;0.57;;;;;;;9.43;100.00;100176.28;5068340;28;20041;-68
2024/02/27 10:05:14;;;;;;;2.63;0.30;;;;;;;9.45;100.00;100174.34;5067179;28;20045;-67
2024/02/27 10:07:40;;;;;;;1.27;0.20;;;;;;;9.38;100.00;100173.31;5069333;28;20389;-68
2024/02/27 10:10:07;;;;;;;3.90;0.20;;;;;;;9.39;100.00;100169.75;5068498;28;20044;-67
2024/02/27 10:12:33;;;;;;;5.13;0.20;;;;;;;9.48;100.00;100173.22;5069328;28;20060;-67
2024/02/27 10:14:58;;;;;;;1.75;0.30;;;;;;;9.47;100.00;100179.38;5068711;28;20063;-67
2024/02/27 10:17:24;;;;;;;7.30;0.22;;;;;;;9.56;100.00;100181.94;5069236;28;20021;-66
2024/02/27 10:19:51;;;;;;;3.83;0.40;;;;;;;9.56;100.00;100166.34;5069181;28;20039;-67
2024/02/27 10:22:19;;;;;;;1.55;0.20;;;;;;;9.55;100.00;100175.09;5068361;28;20024;-67
2024/02/27 10:24:45;;;;;;;1.75;0.10;;;;;;;9.59;100.00;100184.25;5069230;28;20485;-66
2024/02/27 10:27:10;;;;;;;5.47;0.20;;;;;;;9.56;100.00;100184.56;5068107;28;20515;-67
2024/02/27 10:29:36;;;;;;;1.30;0.20;;;;;;;9.67;100.00;100187.94;5067907;28;20040;-67
2024/02/27 10:32:02;;;;;;;4.10;0.40;;;;;;;9.77;100.00;100181.72;5067645;28;20040;-67
2024/02/27 10:34:28;;;;;;;1.85;0.30;;;;;;;9.75;100.00;100191.44;5067574;28;20038;-67
2024/02/27 10:36:58;;;;;;;0.88;0.10;;;;;;;9.60;100.00;100193.69;5069653;28;20024;-66
2024/02/27 10:39:24;;;;;;;3.65;0.10;;;;;;;9.66;100.00;100197.50;5067998;28;20115;-67
2024/02/27 10:41:51;;;;;;;1.77;0.20;;;;;;;9.56;100.00;100187.16;5069147;28;20128;-67
2024/02/27 10:44:17;;;;;;;4.95;0.38;;;;;;;9.56;100.00;100194.94;5067565;28;20028;-66
2024/02/27 10:46:42;;;;;;;0.80;0.20;;;;;;;9.54;100.00;100199.47;5063775;28;20035;-66
2024/02/27 10:49:08;;;;;;;3.13;0.30;;;;;;;9.63;100.00;100195.19;5068796;28;20044;-67
2024/02/27 10:51:36;;;;;;;6.60;1.40;;;;;;;9.59;100.00;100193.84;5072142;28;20151;-66
2024/02/27 10:54:02;;;;;;;2.70;0.40;;;;;;;9.55;100.00;100187.28;5072011;28;20028;-67
2024/02/27 10:56:28;;;;;;;3.17;0.57;;;;;;;9.47;100.00;100198.41;5072303;28;20143;-67
2024/02/27 10:58:54;;;;;;;3.33;0.40;;;;;;;9.49;100.00;100193.88;5072638;28;20074;-66
2024/02/27 11:01:21;;;;;;;1.20;0.30;;;;;;;9.54;100.00;100198.66;5070913;28;20048;-66
2024/02/27 11:03:53;;;;;;;2.00;0.40;;;;;;;9.60;100.00;100206.72;5072388;28;20028;-66
2024/02/27 11:06:26;;;;;;;2.17;0.55;;;;;;;9.64;100.00;100199.44;5071280;28;20119;-67
2024/02/27 11:09:03;;;;;;;1.77;0.20;;;;;;;9.74;100.00;100204.59;5072181;28;20033;-67
2024/02/27 11:11:30;;;;;;;4.72;0.77;;;;;;;9.85;100.00;100207.00;5072167;28;20046;-67
2024/02/27 11:14:04;;;;;;;2.15;0.70;;;;;;;9.96;100.00;100206.78;5073697;28;20119;-66
2024/02/27 11:16:31;;;;;;;1.52;0.60;;;;;;;9.99;100.00;100212.50;5072148;28;20139;-66
2024/02/27 11:19:00;;;;;;;3.33;0.98;;;;;;;10.03;100.00;100204.41;5072252;28;20056;-66
2024/02/27 11:21:28;;;;;;;2.35;0.70;;;;;;;10.04;100.00;100206.88;5070587;28;20136;-66
2024/02/27 11:23:54;;;;;;;1.92;0.50;;;;;;;9.98;100.00;100210.88;5068486;28;20059;-66
2024/02/27 11:26:20;;;;;;;5.68;0.90;;;;;;;9.88;100.00;100210.13;5072531;28;20148;-67
2024/02/27 11:28:47;;;;;;;2.38;0.60;;;;;;;9.83;100.00;100204.53;5067313;28;20028;-67